createdAt,value
2018-09-21T00:03:32.552Z,100392.45
2018-09-21T00:08:27.046Z,100386.36
2018-09-21T00:13:21.468Z,100380.77
2018-09-21T00:18:16.010Z,100378.40
2018-09-21T00:23:10.464Z,100370.66
2018-09-21T00:28:04.928Z,100366.78
2018-09-21T00:32:59.372Z,100363.08
2018-09-21T00:37:53.992Z,100360.88
2018-09-21T00:42:48.472Z,100371.62
2018-09-21T00:47:42.942Z,100363.72
2018-09-21T00:52:37.432Z,100358.66
2018-09-21T00:57:31.889Z,100347.91
2018-09-21T01:02:26.378Z,100335.48
2018-09-21T01:07:20.842Z,100323.89
2018-09-21T01:12:15.302Z,100311.47
2018-09-21T01:17:09.786Z,100309.27
2018-09-21T01:22:04.831Z,100297.19
2018-09-21T01:26:59.282Z,100293.64
2018-09-21T01:31:53.805Z,100288.59
2018-09-21T01:36:48.416Z,100287.90
2018-09-21T01:41:42.894Z,100276.29
2018-09-21T01:46:37.582Z,100264.68
2018-09-21T01:51:32.040Z,100263.33
2018-09-21T01:56:26.509Z,100253.27
2018-09-21T02:01:21.044Z,100245.39
2018-09-21T02:06:15.778Z,100240.39
2018-09-21T02:11:10.248Z,100232.67
2018-09-21T02:16:04.938Z,100224.48
2018-09-21T02:20:59.403Z,100224.33
2018-09-21T02:25:53.847Z,100212.28
2018-09-21T02:30:48.490Z,100199.22
2018-09-21T02:35:43.022Z,100185.63
2018-09-21T02:40:37.494Z,100181.42
2018-09-21T02:45:31.982Z,100168.80
2018-09-21T02:50:26.425Z,100157.89
2018-09-21T02:55:20.872Z,100143.77
2018-09-21T03:00:15.338Z,100139.22
2018-09-21T03:05:09.946Z,100133.03
2018-09-21T03:10:04.434Z,100134.86
2018-09-21T03:14:58.925Z,100139.41
2018-09-21T03:19:53.415Z,100113.39
2018-09-21T03:24:47.891Z,100101.98
2018-09-21T03:29:42.355Z,100086.20
2018-09-21T03:34:36.807Z,100077.28
2018-09-21T03:39:31.284Z,100071.58
2018-09-21T03:44:26.358Z,100057.45
2018-09-21T03:49:20.844Z,100052.42
2018-09-21T03:54:15.422Z,100042.20
2018-09-21T03:59:10.066Z,100038.83
2018-09-21T04:04:04.634Z,100030.59
2018-09-21T04:08:59.247Z,100030.92
2018-09-21T04:13:53.679Z,100022.36
2018-09-21T04:18:48.800Z,100007.08
2018-09-21T04:23:43.333Z,100007.62
2018-09-21T04:28:37.811Z,100010.80
2018-09-21T04:33:32.465Z,100013.67
2018-09-21T04:38:26.915Z,100011.13
2018-09-21T04:43:21.545Z,100014.38
2018-09-21T04:48:15.986Z,100008.12
2018-09-21T04:53:10.566Z,100007.09
2018-09-21T04:58:05.030Z,100010.63
2018-09-21T05:02:59.540Z,99993.30
2018-09-21T05:07:54.018Z,99985.21
2018-09-21T05:12:48.489Z,99981.85
2018-09-21T05:17:43.260Z,99980.16
2018-09-21T05:22:37.738Z,99981.00
2018-09-21T05:27:32.203Z,99975.62
2018-09-21T05:32:26.932Z,99966.52
2018-09-21T05:37:21.368Z,99974.60
2018-09-21T05:42:16.338Z,99973.58
2018-09-21T05:47:13.322Z,99983.84
2018-09-21T05:52:07.907Z,99977.79
2018-09-21T05:57:03.713Z,99981.50
2018-09-21T06:01:58.188Z,99974.60
2018-09-21T06:06:52.912Z,99974.26
2018-09-21T06:11:47.371Z,99971.71
2018-09-21T06:16:42.071Z,99977.59
2018-09-21T06:21:36.873Z,99979.44
2018-09-21T06:26:31.416Z,99973.39
2018-09-21T06:31:25.964Z,99979.23
2018-09-21T06:36:21.282Z,99996.39
2018-09-21T06:41:16.142Z,99984.60
2018-09-21T06:46:10.595Z,99967.59
2018-09-21T06:51:05.811Z,99961.50
2018-09-21T06:56:00.446Z,99963.17
2018-09-21T07:00:54.920Z,99982.34
2018-09-21T07:05:49.390Z,99992.44
2018-09-21T07:10:43.838Z,100007.89
2018-09-21T07:15:38.431Z,100005.16
2018-09-21T07:20:33.163Z,100010.02
2018-09-21T07:25:27.733Z,99987.25
2018-09-21T07:30:22.295Z,99967.15
2018-09-21T07:35:16.755Z,99965.93
2018-09-21T07:40:11.260Z,99974.28
2018-09-21T07:45:05.944Z,99982.04
2018-09-21T07:50:00.629Z,99945.16
2018-09-21T07:54:55.066Z,99946.00
2018-09-21T07:59:49.603Z,99960.97
2018-09-21T08:04:44.215Z,99971.06
2018-09-21T08:09:38.806Z,99969.04
2018-09-21T08:14:33.464Z,99961.59
2018-09-21T08:19:27.950Z,99979.91
2018-09-21T08:24:22.878Z,99971.77
2018-09-21T08:29:17.559Z,99975.20
2018-09-21T08:34:12.220Z,99994.92
2018-09-21T08:39:10.850Z,99993.39
2018-09-21T08:44:05.400Z,99985.63
2018-09-21T08:49:00.064Z,100023.23
2018-09-21T08:53:54.515Z,100026.67
2018-09-21T08:58:48.941Z,100028.16
2018-09-21T09:03:43.639Z,100094.63
2018-09-21T09:08:38.107Z,100176.76
2018-09-21T09:13:32.619Z,100229.71
2018-09-21T09:18:27.094Z,100244.59
2018-09-21T09:23:21.537Z,100254.40
2018-09-21T09:28:16.067Z,100251.11
2018-09-21T09:33:10.600Z,100242.52
2018-09-21T09:38:05.054Z,100246.64
2018-09-21T09:42:59.557Z,100263.12
2018-09-21T09:47:54.181Z,100276.12
2018-09-21T09:52:48.618Z,100283.38
2018-09-21T09:57:43.316Z,100302.68
2018-09-21T10:02:37.777Z,100292.94
2018-09-21T10:07:32.432Z,100288.81
2018-09-21T10:12:27.101Z,100292.45
2018-09-21T10:17:21.734Z,100292.31
2018-09-21T10:22:16.745Z,100307.59
2018-09-21T10:27:11.243Z,100294.61
2018-09-21T10:32:06.138Z,100286.59
2018-09-21T10:37:00.672Z,100311.66
2018-09-21T10:41:55.285Z,100320.77
2018-09-21T10:46:49.921Z,100309.27
2018-09-21T10:51:44.417Z,100304.72
2018-09-21T10:56:38.927Z,100291.06
2018-09-21T11:01:33.330Z,100292.12
2018-09-21T11:06:28.016Z,100309.27
2018-09-21T11:11:22.957Z,100317.25
2018-09-21T11:16:17.846Z,100317.02
2018-09-21T11:21:12.294Z,100310.81
2018-09-21T11:26:06.891Z,100301.95
2018-09-21T11:31:01.397Z,100296.31
2018-09-21T11:35:56.023Z,100291.20
2018-09-21T11:40:50.523Z,100301.09
2018-09-21T11:45:45.347Z,100320.69
2018-09-21T11:50:39.844Z,100334.72
2018-09-21T11:55:34.312Z,100340.22
2018-09-21T12:00:28.763Z,100332.09
2018-09-21T12:05:23.254Z,100323.35
2018-09-21T12:10:17.699Z,100339.48
2018-09-21T12:15:12.509Z,100350.92
2018-09-21T12:20:07.220Z,100361.81
2018-09-21T12:25:01.817Z,100374.19
2018-09-21T12:29:56.296Z,100384.20
2018-09-21T12:34:50.908Z,100393.93
2018-09-21T12:39:45.345Z,100408.70
2018-09-21T12:44:39.833Z,100423.14
2018-09-21T12:49:36.311Z,100429.29
2018-09-21T12:54:30.813Z,100442.44
2018-09-21T12:59:25.274Z,100447.30
2018-09-21T13:04:19.757Z,100451.25
2018-09-21T13:09:14.236Z,100468.73
2018-09-21T13:14:08.685Z,100466.73
2018-09-21T13:19:03.340Z,100478.82
2018-09-21T13:23:57.809Z,100474.16
2018-09-21T13:28:52.430Z,100489.59
2018-09-21T13:33:47.062Z,100491.05
2018-09-21T13:38:41.603Z,100506.23
2018-09-21T13:43:36.136Z,100507.36
2018-09-21T13:48:30.623Z,100509.04
2018-09-21T13:53:25.085Z,100522.14
2018-09-21T13:58:19.659Z,100519.61
2018-09-21T14:03:14.106Z,100523.94
2018-09-21T14:08:08.706Z,100518.37
2018-09-21T14:13:03.311Z,100536.61
2018-09-21T14:17:57.797Z,100551.67
2018-09-21T14:22:52.294Z,100545.75
2018-09-21T14:27:49.329Z,100567.30
2018-09-21T14:32:44.730Z,100578.25
2018-09-21T14:37:39.740Z,100577.87
2018-09-21T14:42:34.591Z,100576.63
2018-09-21T14:47:29.885Z,100590.67
2018-09-21T14:52:25.494Z,100592.89
2018-09-21T14:57:20.596Z,100607.75
2018-09-21T15:02:15.925Z,100604.50
2018-09-21T15:07:10.510Z,100619.24
2018-09-21T15:12:05.475Z,100621.05
2018-09-21T15:17:00.047Z,100629.91
2018-09-21T15:21:54.690Z,100633.03
2018-09-21T15:26:50.370Z,100639.33
2018-09-21T15:31:45.679Z,100647.95
2018-09-21T15:36:40.771Z,100646.81
2018-09-21T15:41:35.987Z,100653.80
2018-09-21T15:46:31.010Z,100648.92
2018-09-21T15:51:27.532Z,100644.79
2018-09-21T15:56:22.074Z,100653.47
2018-09-21T16:01:16.724Z,100665.01
2018-09-21T16:06:11.319Z,100674.34
2018-09-21T16:11:05.815Z,100679.80
2018-09-21T16:16:00.469Z,100684.17
2018-09-21T16:20:55.236Z,100683.18
2018-09-21T16:25:49.798Z,100687.03
2018-09-21T16:30:44.369Z,100677.10
2018-09-21T16:35:38.828Z,100683.86
2018-09-21T16:40:33.766Z,100690.95
2018-09-21T16:45:28.379Z,100688.13
2018-09-21T16:50:22.888Z,100687.70
2018-09-21T16:55:17.712Z,100696.97
2018-09-21T17:00:12.422Z,100699.34
2018-09-21T17:05:07.061Z,100706.05
2018-09-21T17:10:01.555Z,100712.28
2018-09-21T17:14:56.074Z,100719.80
2018-09-21T17:19:50.518Z,100729.25
2018-09-21T17:24:44.943Z,100745.52
2018-09-21T17:29:39.673Z,100750.89
2018-09-21T17:34:34.229Z,100743.95
2018-09-21T17:39:28.686Z,100763.61
2018-09-21T17:44:23.623Z,100784.93
2018-09-21T17:49:18.125Z,100781.65
2018-09-21T17:54:12.764Z,100800.80
2018-09-21T17:59:07.236Z,100804.61
2018-09-21T18:04:01.883Z,100819.43
2018-09-21T18:08:56.422Z,100827.77
2018-09-21T18:13:50.846Z,100833.39
2018-09-21T18:18:45.680Z,100847.42
2018-09-21T18:23:40.723Z,100858.88
2018-09-21T18:28:35.300Z,100859.89
2018-09-21T18:33:29.906Z,100866.25
2018-09-21T18:38:25.169Z,100877.37
2018-09-21T18:43:19.652Z,100884.78
2018-09-21T18:48:14.294Z,100887.56
2018-09-21T18:53:08.806Z,100898.68
2018-09-21T18:58:03.337Z,100903.30
2018-09-21T19:02:58.336Z,100913.20
2018-09-21T19:07:52.973Z,100931.59
2018-09-21T19:12:47.835Z,100943.04
2018-09-21T19:17:42.773Z,100959.45
2018-09-21T19:22:37.312Z,100973.09
2018-09-21T19:27:31.967Z,100982.73
2018-09-21T19:32:26.576Z,100987.09
2018-09-21T19:37:21.042Z,100994.76
2018-09-21T19:42:15.502Z,101004.62
2018-09-21T19:47:10.053Z,101016.71
2018-09-21T19:52:04.518Z,101028.73
2018-09-21T19:56:58.964Z,101033.90
2018-09-21T20:01:53.574Z,101030.84
2018-09-21T20:06:48.292Z,101041.59
2018-09-21T20:11:42.989Z,101051.89
2018-09-21T20:16:37.605Z,101044.87
2018-09-21T20:21:32.190Z,101043.14
2018-09-21T20:26:26.651Z,101050.77
2018-09-21T20:31:26.342Z,101059.53
2018-09-21T20:36:20.809Z,101060.38
2018-09-21T20:41:15.437Z,101076.66
2018-09-21T20:46:11.658Z,101083.56
2018-09-21T20:51:06.118Z,101097.48
2018-09-21T20:56:00.719Z,101095.39
2018-09-21T21:00:55.216Z,101103.08
2018-09-21T21:05:49.682Z,101104.80
2018-09-21T21:10:44.186Z,101103.67
2018-09-21T21:15:38.801Z,101114.32
2018-09-21T21:20:33.279Z,101119.38
2018-09-21T21:25:27.771Z,101123.44
2018-09-21T21:30:22.265Z,101132.84
2018-09-21T21:35:16.736Z,101138.20
2018-09-21T21:40:11.395Z,101138.76
2018-09-21T21:45:07.374Z,101158.42
2018-09-21T21:50:02.399Z,101163.17
2018-09-21T21:54:57.761Z,101167.16
2018-09-21T21:59:52.263Z,101165.73
2018-09-21T22:04:47.446Z,101172.58
2018-09-21T22:09:43.085Z,101181.80
2018-09-21T22:14:38.826Z,101194.53
2018-09-21T22:19:33.299Z,101199.00
2018-09-21T22:24:28.791Z,101213.06
2018-09-21T22:29:23.380Z,101215.33
2018-09-21T22:34:18.268Z,101221.69
2018-09-21T22:39:14.056Z,101226.92
2018-09-21T22:44:09.107Z,101228.26
2018-09-21T22:49:06.368Z,101228.81
2018-09-21T22:54:00.824Z,101243.03
2018-09-21T22:58:55.408Z,101247.20
2018-09-21T23:03:50.357Z,101254.25
2018-09-21T23:08:44.795Z,101254.84
2018-09-21T23:13:39.235Z,101246.66
2018-09-21T23:18:33.871Z,101244.73
2018-09-21T23:23:28.338Z,101258.24
2018-09-21T23:28:22.758Z,101264.02
2018-09-21T23:33:17.221Z,101267.05
2018-09-21T23:38:12.075Z,101275.52
2018-09-21T23:43:06.748Z,101277.25
2018-09-21T23:48:01.193Z,101285.56
2018-09-21T23:52:55.877Z,101298.21
2018-09-21T23:57:50.347Z,101291.47
